createdAt,value
2022-12-13T00:02:12.618Z,-3.10
2022-12-13T00:04:44.284Z,-3.00
2022-12-13T00:07:12.620Z,-3.00
2022-12-13T00:09:40.232Z,-3.00
2022-12-13T00:12:16.375Z,-2.90
2022-12-13T00:14:45.759Z,-2.80
2022-12-13T00:17:13.040Z,-2.80
2022-12-13T00:19:41.400Z,-2.90
2022-12-13T00:22:09.823Z,-2.80
2022-12-13T00:24:42.855Z,-2.80
2022-12-13T00:27:15.442Z,-2.70
2022-12-13T00:29:42.729Z,-2.60
2022-12-13T00:32:12.113Z,-2.70
2022-12-13T00:34:41.412Z,-2.60
2022-12-13T00:37:10.623Z,-2.60
2022-12-13T00:39:47.984Z,-2.70
2022-12-13T00:42:16.449Z,-2.70
2022-12-13T00:44:54.685Z,-2.70
2022-12-13T00:47:23.931Z,-2.70
2022-12-13T00:50:01.496Z,-2.70
2022-12-13T00:52:29.354Z,-2.70
2022-12-13T00:54:57.534Z,-2.70
2022-12-13T00:57:26.922Z,-2.90
2022-12-13T00:59:55.143Z,-2.90
2022-12-13T01:02:23.331Z,-2.90
2022-12-13T01:04:52.804Z,-2.90
2022-12-13T01:07:21.064Z,-2.90
2022-12-13T01:09:53.706Z,-2.90
2022-12-13T01:12:22.114Z,-2.90
2022-12-13T01:14:55.785Z,-2.80
2022-12-13T01:17:24.313Z,-2.90
2022-12-13T01:19:51.507Z,-2.90
2022-12-13T01:22:19.696Z,-2.90
2022-12-13T01:24:46.933Z,-3.00
2022-12-13T01:27:14.233Z,-3.10
2022-12-13T01:29:47.693Z,-3.00
2022-12-13T01:32:16.421Z,-3.00
2022-12-13T01:34:43.670Z,-3.10
2022-12-13T01:37:26.101Z,-3.00
2022-12-13T01:39:53.674Z,-3.10
2022-12-13T01:42:27.035Z,-3.10
2022-12-13T01:45:22.115Z,-3.10
2022-12-13T01:48:02.670Z,-3.20
2022-12-13T01:50:34.852Z,-3.20
2022-12-13T01:53:07.249Z,-3.30
2022-12-13T01:55:41.818Z,-3.30
2022-12-13T01:58:18.840Z,-3.30
2022-12-13T02:00:48.804Z,-3.30
2022-12-13T02:03:21.251Z,-3.40
2022-12-13T02:06:03.997Z,-3.40
2022-12-13T02:08:35.773Z,-3.40
2022-12-13T02:11:05.204Z,-3.40
2022-12-13T02:13:32.413Z,-3.50
2022-12-13T02:16:10.310Z,-3.60
2022-12-13T02:18:47.511Z,-3.70
2022-12-13T02:21:53.883Z,-3.90
2022-12-13T02:24:33.254Z,-3.80
2022-12-13T02:27:30.599Z,-3.80
2022-12-13T02:30:19.922Z,-3.70
2022-12-13T02:33:04.833Z,-3.80
2022-12-13T02:36:19.713Z,-3.90
2022-12-13T02:39:10.630Z,-3.90
2022-12-13T02:41:51.105Z,-3.90
2022-12-13T02:44:26.192Z,-3.90
2022-12-13T02:47:06.950Z,-3.90
2022-12-13T02:49:59.723Z,-4.00
2022-12-13T02:52:29.854Z,-4.00
2022-12-13T02:54:59.060Z,-4.30
2022-12-13T02:57:29.354Z,-4.30
2022-12-13T03:00:03.350Z,-4.40
2022-12-13T03:02:38.800Z,-4.40
2022-12-13T03:06:03.755Z,-4.60
2022-12-13T03:09:11.755Z,-4.80
2022-12-13T03:12:05.453Z,-4.80
2022-12-13T03:14:36.691Z,-4.60
2022-12-13T03:17:09.050Z,-4.70
2022-12-13T03:19:37.734Z,-4.80
2022-12-13T03:22:07.280Z,-5.00
2022-12-13T03:24:35.587Z,-5.10
2022-12-13T03:27:03.037Z,-5.20
2022-12-13T03:29:30.530Z,-5.40
2022-12-13T03:32:03.895Z,-5.60
2022-12-13T03:34:44.214Z,-5.50
2022-12-13T03:37:22.203Z,-5.40
2022-12-13T03:39:50.330Z,-5.50
2022-12-13T03:42:18.170Z,-5.60
2022-12-13T03:44:45.573Z,-5.70
2022-12-13T03:47:17.671Z,-5.80
2022-12-13T03:49:54.075Z,-5.80
2022-12-13T03:52:22.033Z,-5.90
2022-12-13T03:54:52.400Z,-5.90
2022-12-13T03:57:19.930Z,-5.90
2022-12-13T03:59:50.647Z,-6.00
2022-12-13T04:02:30.939Z,-6.20
2022-12-13T04:05:12.516Z,-6.30
2022-12-13T04:07:40.610Z,-6.40
2022-12-13T04:10:25.910Z,-6.50
2022-12-13T04:13:13.679Z,-6.60
2022-12-13T04:15:50.924Z,-6.50
2022-12-13T04:18:20.381Z,-6.60
2022-12-13T04:21:00.953Z,-6.70
2022-12-13T04:23:28.250Z,-6.70
2022-12-13T04:25:55.591Z,-6.60
2022-12-13T04:28:23.272Z,-6.60
2022-12-13T04:30:54.735Z,-6.60
2022-12-13T04:33:23.435Z,-6.60
2022-12-13T04:35:51.579Z,-6.70
2022-12-13T04:38:22.934Z,-6.70
2022-12-13T04:40:50.270Z,-6.70
2022-12-13T04:43:18.550Z,-6.80
2022-12-13T04:45:46.969Z,-6.70
2022-12-13T04:48:30.789Z,-6.70
2022-12-13T04:51:01.769Z,-6.60
2022-12-13T04:53:30.490Z,-6.80
2022-12-13T04:55:59.737Z,-6.80
2022-12-13T04:58:30.263Z,-6.70
2022-12-13T05:00:58.545Z,-6.80
2022-12-13T05:03:26.304Z,-6.70
2022-12-13T05:05:54.670Z,-6.60
2022-12-13T05:08:23.987Z,-6.70
2022-12-13T05:10:54.243Z,-6.70
2022-12-13T05:13:21.633Z,-6.80
2022-12-13T05:15:58.955Z,-6.70
2022-12-13T05:18:29.388Z,-6.70
2022-12-13T05:21:03.876Z,-6.70
2022-12-13T05:23:31.954Z,-6.90
2022-12-13T05:26:00.293Z,-7.00
2022-12-13T05:28:30.893Z,-6.90
2022-12-13T05:31:22.931Z,-7.00
2022-12-13T05:33:52.955Z,-6.90
2022-12-13T05:36:25.670Z,-6.90
2022-12-13T05:38:53.389Z,-6.90
2022-12-13T05:41:25.189Z,-6.90
2022-12-13T05:43:52.660Z,-6.70
2022-12-13T05:46:22.012Z,-6.80
2022-12-13T05:48:50.274Z,-6.80
2022-12-13T05:51:18.581Z,-7.00
2022-12-13T05:53:51.548Z,-7.10
2022-12-13T05:56:27.890Z,-7.10
2022-12-13T05:58:56.333Z,-6.90
2022-12-13T06:01:24.671Z,-7.00
2022-12-13T06:03:53.061Z,-7.10
2022-12-13T06:06:21.611Z,-7.10
2022-12-13T06:08:49.921Z,-7.20
2022-12-13T06:11:31.390Z,-7.10
2022-12-13T06:14:01.157Z,-7.50
2022-12-13T06:16:32.848Z,-7.90
2022-12-13T06:19:04.216Z,-8.10
2022-12-13T06:21:46.320Z,-8.10
2022-12-13T06:24:18.173Z,-7.90
2022-12-13T06:26:52.190Z,-8.00
2022-12-13T06:29:23.234Z,-8.00
2022-12-13T06:32:01.981Z,-7.90
2022-12-13T06:34:34.612Z,-7.80
2022-12-13T06:37:07.346Z,-7.80
2022-12-13T06:39:35.924Z,-7.90
2022-12-13T06:42:14.353Z,-8.00
2022-12-13T06:44:55.887Z,-8.00
2022-12-13T06:47:31.858Z,-8.10
2022-12-13T06:50:05.388Z,-8.10
2022-12-13T06:52:34.690Z,-8.00
2022-12-13T06:55:02.253Z,-7.90
2022-12-13T06:57:34.212Z,-7.90
2022-12-13T07:00:03.930Z,-7.70
2022-12-13T07:02:32.927Z,-7.80
2022-12-13T07:05:01.213Z,-7.80
2022-12-13T07:07:28.483Z,-7.60
2022-12-13T07:09:57.682Z,-7.40
2022-12-13T07:12:26.000Z,-7.30
2022-12-13T07:14:53.565Z,-7.30
2022-12-13T07:17:31.888Z,-7.40
2022-12-13T07:20:04.783Z,-7.40
2022-12-13T07:22:35.029Z,-7.20
2022-12-13T07:25:05.401Z,-7.00
2022-12-13T07:27:33.400Z,-7.00
2022-12-13T07:30:01.953Z,-7.00
2022-12-13T07:32:29.249Z,-7.00
2022-12-13T07:34:56.474Z,-7.10
2022-12-13T07:37:29.871Z,-6.20
2022-12-13T07:40:04.073Z,-6.80
2022-12-13T07:42:34.305Z,-6.70
2022-12-13T07:45:02.028Z,-6.50
2022-12-13T07:47:34.944Z,-6.50
2022-12-13T07:50:03.205Z,-6.50
2022-12-13T07:52:32.324Z,-6.60
2022-12-13T07:54:59.553Z,-6.70
2022-12-13T07:57:26.847Z,-6.80
2022-12-13T07:59:54.091Z,-6.70
2022-12-13T08:02:22.419Z,-6.80
2022-12-13T08:04:54.779Z,-6.70
2022-12-13T08:07:22.941Z,-6.80
2022-12-13T08:09:53.179Z,-6.60
2022-12-13T08:12:22.524Z,-6.50
2022-12-13T08:14:53.150Z,-6.40
2022-12-13T08:17:20.987Z,-6.20
2022-12-13T08:19:49.373Z,-6.10
2022-12-13T08:22:16.674Z,-6.00
2022-12-13T08:24:52.254Z,-5.90
2022-12-13T08:27:20.463Z,-5.90
2022-12-13T08:29:48.736Z,-5.90
2022-12-13T08:32:16.087Z,-5.80
2022-12-13T08:34:45.882Z,-5.70
2022-12-13T08:37:14.435Z,-5.60
2022-12-13T08:39:42.978Z,-5.50
2022-12-13T08:42:16.286Z,-5.40
2022-12-13T08:44:53.864Z,-5.40
2022-12-13T08:47:26.012Z,-5.40
2022-12-13T08:50:02.714Z,-5.30
2022-12-13T08:52:39.259Z,-5.30
2022-12-13T08:55:10.737Z,-5.20
2022-12-13T08:57:40.916Z,-5.20
2022-12-13T09:00:13.015Z,-5.10
2022-12-13T09:02:41.387Z,-4.50
2022-12-13T09:05:10.788Z,-4.90
2022-12-13T09:07:41.192Z,-4.80
2022-12-13T09:10:27.383Z,-4.70
2022-12-13T09:13:01.337Z,-4.60
2022-12-13T09:15:33.983Z,-4.50
2022-12-13T09:18:04.844Z,-4.50
2022-12-13T09:20:40.543Z,-4.40
2022-12-13T09:23:14.193Z,-4.30
2022-12-13T09:26:05.687Z,-4.30
2022-12-13T09:28:37.333Z,-4.10
2022-12-13T09:31:09.530Z,-4.10
2022-12-13T09:33:41.508Z,-4.00
2022-12-13T09:36:17.462Z,-4.00
2022-12-13T09:38:46.967Z,-3.90
2022-12-13T09:41:28.571Z,-3.80
2022-12-13T09:44:31.151Z,-3.70
2022-12-13T09:47:13.517Z,-3.60
2022-12-13T09:49:53.111Z,-3.40
2022-12-13T09:52:25.821Z,-3.40
2022-12-13T09:54:56.539Z,-3.30
2022-12-13T09:57:33.548Z,-3.20
2022-12-13T10:00:08.700Z,-3.10
2022-12-13T10:02:45.445Z,-3.00
2022-12-13T10:05:35.750Z,-3.00
2022-12-13T10:08:15.467Z,-2.90
2022-12-13T10:10:44.080Z,-2.80
2022-12-13T10:13:16.990Z,-2.70
2022-12-13T10:15:50.613Z,-2.60
2022-12-13T10:18:29.321Z,-2.50
2022-12-13T10:20:57.936Z,-2.40
2022-12-13T10:23:47.030Z,-2.20
2022-12-13T10:26:23.774Z,-2.20
2022-12-13T10:29:03.301Z,-2.00
2022-12-13T10:31:30.783Z,-2.00
2022-12-13T10:34:03.598Z,-2.00
2022-12-13T10:36:32.789Z,-1.90
2022-12-13T10:39:03.406Z,-1.90
2022-12-13T10:41:38.432Z,-1.80
2022-12-13T10:44:24.337Z,-1.80
2022-12-13T10:47:18.135Z,-1.70
2022-12-13T10:49:59.089Z,-1.70
2022-12-13T10:52:31.954Z,-1.60
2022-12-13T10:55:22.796Z,-1.50
2022-12-13T10:57:57.565Z,-1.50
2022-12-13T11:00:35.003Z,-1.50
2022-12-13T11:03:02.300Z,-1.40
2022-12-13T11:05:35.280Z,-1.40
2022-12-13T11:08:26.619Z,-1.40
2022-12-13T11:11:03.613Z,-1.30
2022-12-13T11:13:38.708Z,-1.30
2022-12-13T11:16:27.445Z,-1.20
2022-12-13T11:19:05.255Z,-1.10
2022-12-13T11:21:38.810Z,-1.00
2022-12-13T11:24:30.010Z,-1.00
2022-12-13T11:27:02.283Z,-0.90
2022-12-13T11:29:57.181Z,-0.80
2022-12-13T11:32:40.270Z,-0.90
2022-12-13T11:35:13.693Z,-0.80
2022-12-13T11:37:52.913Z,-0.70
2022-12-13T11:40:29.974Z,-0.80
2022-12-13T11:43:09.984Z,-0.70
2022-12-13T11:45:49.695Z,-0.60
2022-12-13T11:48:22.455Z,-0.50
2022-12-13T11:50:56.748Z,3.60
2022-12-13T11:53:56.558Z,5.40
2022-12-13T11:56:32.552Z,6.10
2022-12-13T11:59:16.156Z,6.50
2022-12-13T12:01:55.724Z,6.60
2022-12-13T12:04:43.863Z,5.20
2022-12-13T12:10:18.304Z,4.70
2022-12-13T12:12:56.562Z,5.70
2022-12-13T12:15:27.012Z,5.70
2022-12-13T12:17:56.545Z,2.80
2022-12-13T12:20:49.007Z,0.40
2022-12-13T12:23:37.402Z,-0.10
2022-12-13T12:26:18.107Z,-0.40
2022-12-13T12:29:29.878Z,-0.60
2022-12-13T12:32:15.911Z,-0.50
2022-12-13T12:35:23.656Z,-0.50
2022-12-13T12:37:54.345Z,-0.50
2022-12-13T12:41:07.263Z,-0.50
2022-12-13T12:43:42.005Z,-0.60
2022-12-13T12:47:09.095Z,-0.50
2022-12-13T12:49:32.221Z,-0.50
2022-12-13T12:52:13.307Z,-0.50
2022-12-13T12:54:51.337Z,-0.60
2022-12-13T12:57:29.800Z,-0.60
2022-12-13T13:00:24.237Z,-0.60
2022-12-13T13:03:17.237Z,-0.60
2022-12-13T13:06:00.125Z,-0.60
2022-12-13T13:08:38.046Z,-0.60
2022-12-13T13:11:24.637Z,-0.50
2022-12-13T13:14:01.879Z,-0.60
2022-12-13T13:16:35.788Z,-0.60
2022-12-13T13:19:11.367Z,-0.60
2022-12-13T13:22:01.619Z,-0.70
2022-12-13T13:24:34.974Z,-0.70
2022-12-13T13:27:11.193Z,-0.70
2022-12-13T13:29:43.182Z,-0.70
2022-12-13T13:32:29.019Z,-0.70
2022-12-13T13:35:33.508Z,-0.70
2022-12-13T13:38:06.443Z,-0.80
2022-12-13T13:40:34.888Z,-0.80
2022-12-13T13:43:11.307Z,-0.80
2022-12-13T13:45:59.420Z,-0.80
2022-12-13T13:49:00.511Z,-0.90
2022-12-13T13:52:26.256Z,-0.90
2022-12-13T13:55:08.943Z,-1.00
2022-12-13T13:58:11.577Z,-0.80
2022-12-13T14:00:57.446Z,-1.00
2022-12-13T14:03:58.154Z,-1.00
2022-12-13T14:06:54.716Z,-1.10
2022-12-13T14:10:12.884Z,-1.10
2022-12-13T14:13:17.417Z,-1.10
2022-12-13T14:16:12.102Z,-1.20
2022-12-13T14:18:59.824Z,-1.20
2022-12-13T14:21:30.841Z,-1.30
2022-12-13T14:24:32.338Z,-1.40
2022-12-13T14:27:02.625Z,-1.50
2022-12-13T14:29:48.542Z,-1.50
2022-12-13T14:32:33.056Z,-1.60
2022-12-13T14:35:24.939Z,-1.60
2022-12-13T14:38:00.985Z,-1.80
2022-12-13T14:40:38.293Z,-1.80
2022-12-13T14:43:06.221Z,-1.80
2022-12-13T14:45:36.925Z,-1.90
2022-12-13T14:48:12.153Z,-2.00
2022-12-13T14:50:44.197Z,-2.00
2022-12-13T14:53:39.001Z,-2.10
2022-12-13T14:56:09.934Z,-2.10
2022-12-13T14:58:39.410Z,-2.10
2022-12-13T15:01:24.896Z,-2.20
2022-12-13T15:04:27.377Z,-2.20
2022-12-13T15:07:08.123Z,-2.30
2022-12-13T15:09:44.209Z,-2.40
2022-12-13T15:12:24.799Z,-2.50
2022-12-13T15:15:05.514Z,-2.50
2022-12-13T15:17:39.420Z,-2.60
2022-12-13T15:20:25.098Z,-2.60
2022-12-13T15:23:06.274Z,-2.60
2022-12-13T15:25:37.758Z,-2.80
2022-12-13T15:28:08.285Z,-2.80
2022-12-13T15:30:37.118Z,-2.80
2022-12-13T15:33:26.307Z,-2.90
2022-12-13T15:36:24.630Z,-2.90
2022-12-13T15:38:55.840Z,-2.80
2022-12-13T15:41:45.333Z,-2.90
2022-12-13T15:44:24.925Z,-2.90
2022-12-13T15:47:03.342Z,-3.00
2022-12-13T15:49:33.325Z,-3.10
2022-12-13T15:52:06.436Z,-3.10
2022-12-13T15:54:34.450Z,-3.10
2022-12-13T15:57:11.436Z,-3.10
2022-12-13T15:59:40.640Z,-3.10
2022-12-13T16:02:20.983Z,-3.20
2022-12-13T16:04:49.424Z,-3.30
2022-12-13T16:07:38.408Z,-3.40
2022-12-13T16:10:09.058Z,-3.40
2022-12-13T16:12:47.742Z,-3.40
2022-12-13T16:15:29.260Z,-3.40
2022-12-13T16:18:13.448Z,-3.40
2022-12-13T16:20:44.264Z,-3.50
2022-12-13T16:23:26.728Z,-3.40
2022-12-13T16:25:56.081Z,-3.40
2022-12-13T16:28:25.977Z,-3.40
2022-12-13T16:30:53.816Z,-3.40
2022-12-13T16:33:27.200Z,-3.50
2022-12-13T16:35:56.112Z,-3.50
2022-12-13T16:38:27.408Z,-3.60
2022-12-13T16:41:00.069Z,-3.50
2022-12-13T16:43:46.779Z,-3.50
2022-12-13T16:47:17.021Z,-3.50
2022-12-13T16:49:16.070Z,-3.60
2022-12-13T16:51:48.026Z,-3.60
2022-12-13T16:54:17.635Z,-3.60
2022-12-13T16:56:45.319Z,-3.60
2022-12-13T16:59:18.480Z,-3.70
2022-12-13T17:01:46.832Z,-3.70
2022-12-13T17:04:21.007Z,-3.60
2022-12-13T17:06:51.137Z,-3.60
2022-12-13T17:09:24.262Z,-3.60
2022-12-13T17:11:51.649Z,-3.50
2022-12-13T17:14:19.010Z,-3.50
2022-12-13T17:16:46.408Z,-3.60
2022-12-13T17:19:15.939Z,-3.60
2022-12-13T17:21:44.192Z,-3.50
2022-12-13T17:24:11.386Z,-3.50
2022-12-13T17:26:39.694Z,-3.50
2022-12-13T17:29:07.151Z,-3.40
2022-12-13T17:31:35.964Z,-3.50
2022-12-13T17:34:05.476Z,-3.50
2022-12-13T17:36:32.896Z,-3.50
2022-12-13T17:39:01.251Z,-3.40
2022-12-13T17:41:28.542Z,-3.30
2022-12-13T17:44:00.869Z,-3.40
2022-12-13T17:46:28.186Z,-3.40
2022-12-13T17:48:55.514Z,-3.50
2022-12-13T17:51:23.874Z,-3.50
2022-12-13T17:53:51.182Z,-3.50
2022-12-13T17:56:19.904Z,-3.50
2022-12-13T17:58:48.406Z,-3.50
2022-12-13T18:01:22.505Z,-3.50
2022-12-13T18:03:56.407Z,-3.50
2022-12-13T18:06:25.474Z,-3.50
2022-12-13T18:08:52.717Z,-3.40
2022-12-13T18:11:36.172Z,-3.50
2022-12-13T18:14:07.424Z,-3.50
2022-12-13T18:16:38.686Z,-3.50
2022-12-13T18:19:09.075Z,-3.50
2022-12-13T18:21:37.293Z,-3.60
2022-12-13T18:24:07.169Z,-3.50
2022-12-13T18:26:34.646Z,-3.60
2022-12-13T18:29:03.264Z,-3.60
2022-12-13T18:31:32.187Z,-3.60
2022-12-13T18:34:00.426Z,-3.60
2022-12-13T18:36:27.783Z,-3.70
2022-12-13T18:38:55.073Z,-3.60
2022-12-13T18:41:25.036Z,-3.60
2022-12-13T18:44:02.264Z,-3.70
2022-12-13T18:46:37.017Z,-3.70
2022-12-13T18:49:06.652Z,-3.70
2022-12-13T18:51:43.321Z,-3.70
2022-12-13T18:54:10.735Z,-3.70
2022-12-13T18:56:38.983Z,-3.70
2022-12-13T18:59:14.564Z,-3.70
2022-12-13T19:01:42.518Z,-3.60
2022-12-13T19:04:10.873Z,-3.70
2022-12-13T19:06:38.747Z,-3.70
2022-12-13T19:09:07.472Z,-3.70
2022-12-13T19:11:36.994Z,-3.80
2022-12-13T19:14:05.713Z,-3.70
2022-12-13T19:16:42.316Z,-3.70
2022-12-13T19:19:12.636Z,-3.70
2022-12-13T19:21:40.877Z,-3.60
2022-12-13T19:24:11.107Z,-3.60
2022-12-13T19:26:39.558Z,-3.70
2022-12-13T19:29:07.140Z,-3.70
2022-12-13T19:31:37.639Z,-3.70
2022-12-13T19:34:11.052Z,-3.80
2022-12-13T19:36:46.372Z,-3.80
2022-12-13T19:39:22.301Z,-3.80
2022-12-13T19:41:51.806Z,-3.80
2022-12-13T19:44:21.457Z,-3.80
2022-12-13T19:46:48.709Z,-3.80
2022-12-13T19:49:17.894Z,-3.80
2022-12-13T19:51:46.293Z,-3.90
2022-12-13T19:54:14.492Z,-3.90
2022-12-13T19:56:43.153Z,-3.90
2022-12-13T19:59:11.452Z,-3.90
2022-12-13T20:01:38.797Z,-3.90
2022-12-13T20:04:06.248Z,-3.90
2022-12-13T20:06:34.328Z,-3.90
2022-12-13T20:09:03.140Z,-3.90
2022-12-13T20:11:32.342Z,-4.00
2022-12-13T20:14:00.787Z,-3.90
2022-12-13T20:16:29.515Z,-3.90
2022-12-13T20:19:00.083Z,-3.90
2022-12-13T20:21:30.067Z,-3.90
2022-12-13T20:23:58.207Z,-3.90
2022-12-13T20:26:29.496Z,-3.90
2022-12-13T20:28:59.686Z,-4.00
2022-12-13T20:31:30.580Z,-3.90
2022-12-13T20:33:59.938Z,-4.00
2022-12-13T20:36:29.467Z,-4.00
2022-12-13T20:39:01.658Z,-4.00
2022-12-13T20:41:31.827Z,-4.00
2022-12-13T20:44:00.574Z,-4.00
2022-12-13T20:46:31.464Z,-4.00
2022-12-13T20:49:02.655Z,-4.00
2022-12-13T20:51:31.975Z,-4.10
2022-12-13T20:53:59.849Z,-4.10
2022-12-13T20:56:29.721Z,-4.10
2022-12-13T20:58:57.063Z,-4.10
2022-12-13T21:01:26.013Z,-4.10
2022-12-13T21:03:55.382Z,-4.10
2022-12-13T21:06:23.688Z,-4.10
2022-12-13T21:08:52.810Z,-4.10
2022-12-13T21:11:25.498Z,-4.10
2022-12-13T21:14:15.166Z,-4.20
2022-12-13T21:16:53.705Z,-4.10
2022-12-13T21:19:26.979Z,-4.20
2022-12-13T21:21:56.772Z,-4.20
2022-12-13T21:24:27.048Z,-4.20
2022-12-13T21:26:56.744Z,-4.20
2022-12-13T21:29:24.578Z,-4.20
2022-12-13T21:31:53.418Z,-4.20
2022-12-13T21:34:24.074Z,-4.10
2022-12-13T21:36:52.749Z,-4.10
2022-12-13T21:39:29.463Z,-4.10
2022-12-13T21:41:57.312Z,-4.20
2022-12-13T21:44:25.722Z,-4.20
2022-12-13T21:47:11.957Z,-4.20
2022-12-13T21:49:41.436Z,-4.20
2022-12-13T21:52:08.677Z,-4.30
2022-12-13T21:54:35.846Z,-4.30
2022-12-13T21:57:22.522Z,-4.30
2022-12-13T21:59:50.772Z,-4.30
2022-12-13T22:02:19.642Z,-4.20
2022-12-13T22:04:52.752Z,-4.30
2022-12-13T22:07:25.516Z,-4.30
2022-12-13T22:09:54.014Z,-4.30
2022-12-13T22:12:25.297Z,-4.30
2022-12-13T22:14:53.445Z,-4.30
2022-12-13T22:17:26.992Z,-4.30
2022-12-13T22:19:58.758Z,-4.30
2022-12-13T22:22:27.274Z,-4.30
2022-12-13T22:24:54.516Z,-4.30
2022-12-13T22:27:24.463Z,-4.30
2022-12-13T22:29:53.305Z,-4.40
2022-12-13T22:32:21.557Z,-4.30
2022-12-13T22:34:49.307Z,-4.40
2022-12-13T22:37:17.517Z,-4.40
2022-12-13T22:39:45.713Z,-4.40
2022-12-13T22:42:12.961Z,-4.40
2022-12-13T22:44:41.193Z,-4.40
2022-12-13T22:47:08.455Z,-4.40
2022-12-13T22:49:37.880Z,-4.40
2022-12-13T22:52:05.441Z,-4.50
2022-12-13T22:54:32.747Z,-4.40
2022-12-13T22:56:59.994Z,-4.50
2022-12-13T22:59:28.268Z,-4.40
2022-12-13T23:02:02.207Z,-4.50
2022-12-13T23:04:33.095Z,-4.50
2022-12-13T23:07:01.638Z,-4.50
2022-12-13T23:09:28.971Z,-4.60
2022-12-13T23:12:14.798Z,-4.60
2022-12-13T23:14:42.136Z,-4.60
2022-12-13T23:17:09.373Z,-4.60
2022-12-13T23:19:49.559Z,-4.70
2022-12-13T23:22:23.944Z,-4.70
2022-12-13T23:24:52.528Z,-4.60
2022-12-13T23:27:23.076Z,-4.60
2022-12-13T23:29:50.492Z,-4.70
2022-12-13T23:32:17.992Z,-4.60
2022-12-13T23:34:47.374Z,-4.70
2022-12-13T23:37:16.792Z,-4.70
2022-12-13T23:39:45.034Z,-4.70
2022-12-13T23:42:12.193Z,-4.70
2022-12-13T23:44:40.455Z,-4.60
2022-12-13T23:47:08.812Z,-4.70
2022-12-13T23:49:36.033Z,-4.70
2022-12-13T23:52:04.380Z,-4.70
2022-12-13T23:54:31.538Z,-4.60
2022-12-13T23:56:58.997Z,-4.60
2022-12-13T23:59:28.247Z,-4.60
